• Join FlightAware (Why Join?)
  • Login
  • US Flag 
04:05PM EDT


 

Airport Tracker/Info


-or-


 

Live Flight TrackerFlight Track Log ✈ UAL906 ✈ 25-Apr-2013 ✈ KORD - EDDM / MUC

Flight Track Log - Related Links

Times and Time Zones

All times are in EDT time to prevent confusion due to time zone crossing. See the UAL906 flight status page for this flight to view local times or setup timezone preferences in your user account.

Time Position Orientation Groundspeed Altitude Reporting Facility
EDT Latitude Longitude Course Direction KTS MPH feet Rate Location/Type
07:00PM 41.9990 -87.9420 319° Northwest 184 212 1,400  Level FlightAware
07:01PM 42.0250 -87.9290 20° North 225 259 2,100 1,740 Climbing FlightAware
07:01PM 42.0440 -87.9050 43° Northeast 236 272 3,000 2,160 Climbing FlightAware
07:02PM 42.0710 -87.8720 42° Northeast 262 302 4,100 2,400 Climbing FlightAware
07:02PM 42.0950 -87.8370 47° Northeast 271 312 5,400 2,820 Climbing FlightAware
07:02PM 42.1080 -87.7950 67° East 279 321 6,700 3,000 Climbing FlightAware
07:03PM 42.1200 -87.7420 73° East 284 327 8,200 2,580 Climbing FlightAware
07:03PM 42.1290 -87.7020 73° East 292 336 9,100 2,280 Climbing FlightAware
07:04PM 42.1490 -87.6200 72° East 308 354 10,900 2,400 Climbing FlightAware
07:05PM 42.1670 -87.5480 71° East 317 365 12,500 1,920 Climbing FlightAware
07:05PM 42.1820 -87.4800 73° East 345 397 13,300 1,320 Climbing FlightAware
07:06PM 42.2070 -87.3710 73° East 386 444 14,400 1,500 Climbing FlightAware
07:07PM 42.2300 -87.2730 72° East 409 471 15,600 1,920 Climbing FlightAware
07:08PM 42.2550 -87.1630 73° East 420 483 17,200 2,100 Climbing FlightAware
07:08PM 42.2750 -87.0600 75° East 436 502 18,600 1,980 Climbing FlightAware
07:09PM 42.2820 -86.9480 85° East 448 516 19,900 1,800 Climbing FlightAware
07:10PM 42.2860 -86.8250 87° East 457 526 21,200 1,800 Climbing FlightAware
07:10PM 42.2910 -86.7100 87° East 464 534 22,500 1,740 Climbing FlightAware
07:11PM 42.2960 -86.5750 87° East 472 543 23,700 1,500 Climbing FlightAware
07:12PM 42.3000 -86.4770 87° East 478 550 24,500 1,560 Climbing FlightAware
07:12PM 42.3050 -86.3380 87° East 483 556 25,800 1,440 Climbing FlightAware
07:13PM 42.3090 -86.1960 88° East 493 567 26,700 1,260 Climbing FlightAware
07:14PM 42.3120 -86.0780 88° East 499 574 27,600 1,680 Climbing FlightAware
07:15PM 42.3120 -85.9500 90° East 494 568 29,000 1,680 Climbing FlightAware
07:15PM 42.3090 -85.8130 92° East 495 570 30,000 1,320 Climbing FlightAware
07:16PM 42.3070 -85.6700 91° East 495 570 31,000 1,260 Climbing FlightAware
07:17PM 42.3060 -85.5480 91° East 497 572 31,800 1,260 Climbing FlightAware
07:17PM 42.3040 -85.4250 91° East 495 570 32,700 840 Climbing FlightAware
07:18PM 42.3050 -85.2880 89° East 487 560 33,000 300 Climbing FlightAware
07:18PM 42.3130 -85.2470 75° East 466 536 33,000  Level FlightAware
07:19PM 42.3530 -85.1610 58° Northeast 459 528 33,000  Level FlightAware
07:20PM 42.4250 -85.0200 55° Northeast 458 527 33,000  Level FlightAware
07:21PM 42.4780 -84.9160 55° Northeast 461 531 33,000  Level FlightAware
07:21PM 42.5280 -84.8180 55° Northeast 462 532 33,000  Level FlightAware
07:22PM 42.5770 -84.7200 56° Northeast 464 534 33,000  Level FlightAware
07:23PM 42.6310 -84.6150 55° Northeast 461 531 33,000  Level FlightAware
07:23PM 42.6790 -84.5200 55° Northeast 462 532 33,000  Level FlightAware
07:24PM 42.7360 -84.4090 55° Northeast 463 533 33,000  Level FlightAware
07:25PM 42.7820 -84.3170 56° Northeast 464 534 33,000  Level FlightAware
07:26PM 42.8310 -84.2190 56° Northeast 465 535 33,000  Level FlightAware
07:26PM 42.8850 -84.1090 56° Northeast 465 535 33,000  Level FlightAware
07:27PM 42.9310 -84.0120 57° Northeast 465 535 33,000  Level FlightAware
07:28PM 42.9850 -83.9000 57° Northeast 466 536 33,000  Level FlightAware
07:28PM 43.0330 -83.7990 57° Northeast 465 535 33,000  Level FlightAware
07:29PM 43.0790 -83.7020 57° Northeast 464 534 33,000  Level FlightAware
07:30PM 43.1260 -83.6050 56° Northeast 463 533 33,000  Level FlightAware
07:30PM 43.1760 -83.4990 57° Northeast 461 531 33,000  Level FlightAware
07:31PM 43.2310 -83.3830 57° Northeast 459 528 33,000  Level FlightAware
07:32PM 43.2760 -83.2860 57° Northeast 457 526 33,000  Level FlightAware
07:33PM 43.3190 -83.1940 57° Northeast 457 526 33,000  Level FlightAware
07:33PM 43.3730 -83.0790 57° Northeast 458 527 33,000  Level FlightAware
07:34PM 43.4150 -82.9900 57° Northeast 457 526 33,000  Level FlightAware
07:35PM 43.4590 -82.8940 58° Northeast 458 527 33,000  Level FlightAware
07:35PM 43.4990 -82.8080 57° Northeast 460 529 33,000  Level FlightAware
07:36PM 43.5510 -82.6930 58° Northeast 463 533 33,000  Level FlightAware
07:37PM 43.6000 -82.5860 58° Northeast 465 535 33,000  Level FlightAware
07:37PM 43.6460 -82.4850 58° Northeast 467 537 33,000  Level FlightAware
07:38PM 43.7030 -82.3570 58° Northeast 470 541 33,000  Level FlightAware
07:39PM 43.7560 -82.2400 58° Northeast 472 543 33,000  Level FlightAware
07:40PM 43.7930 -82.1570 58° Northeast 473 544 33,000  Level FlightAware
07:40PM 43.8500 -82.0300 58° Northeast 475 547 33,000  Level FlightAware
07:41PM 43.8940 -81.9310 58° Northeast 477 549 33,000  Level FlightAware
07:42PM 43.9470 -81.8100 59° Northeast 478 550 33,000  Level FlightAware
07:42PM 43.9940 -81.7030 59° Northeast 479 551 33,000  Level FlightAware
07:43PM 44.0390 -81.6000 59° Northeast 481 554 33,000  Level FlightAware
07:44PM 44.0910 -81.4820 58° Northeast 482 555 33,000  Level FlightAware
07:44PM 44.1360 -81.3780 59° Northeast 482 555 33,000  Level FlightAware
07:45PM 44.1880 -81.2580 59° Northeast 483 556 33,000  Level FlightAware
07:46PM 44.2350 -81.1500 59° Northeast 482 555 33,000  Level FlightAware
07:47PM 44.2810 -81.0430 59° Northeast 482 555 33,000  Level FlightAware
07:47PM 44.3330 -80.9210 59° Northeast 482 555 33,000  Level FlightAware
07:48PM 44.3760 -80.8170 60° Northeast 483 556 33,000  Level FlightAware
07:49PM 44.4260 -80.6990 59° Northeast 485 558 33,000  Level FlightAware
07:49PM 44.4730 -80.5850 60° Northeast 486 559 33,000  Level FlightAware
07:50PM 44.5190 -80.4770 59° Northeast 486 559 33,000  Level FlightAware
07:51PM 44.5650 -80.3660 60° Northeast 488 562 33,000  Level FlightAware
07:51PM 44.6150 -80.2440 60° Northeast 489 563 33,000  Level FlightAware
07:52PM 44.6650 -80.1230 60° Northeast 491 565 33,000  Level FlightAware
07:53PM 44.7130 -80.0080 60° Northeast 493 567 33,000  Level FlightAware
07:54PM 44.7570 -79.9000 60° Northeast 494 568 33,000  Level FlightAware
07:54PM 44.8070 -79.7780 60° Northeast 496 571 33,000  Level FlightAware
07:55PM 44.8480 -79.6760 60° Northeast 496 571 33,000  Level FlightAware
07:56PM 44.8980 -79.5510 61° Northeast 496 571 33,000  Level FlightAware
07:56PM 44.9440 -79.4340 61° Northeast 496 571 33,000  Level FlightAware
07:57PM 44.9950 -79.3070 60° Northeast 497 572 33,000  Level FlightAware
07:58PM 45.0440 -79.1840 61° Northeast 497 572 33,000  Level FlightAware
07:58PM 45.0900 -79.0670 61° Northeast 498 573 33,000  Level FlightAware
07:59PM 45.1310 -78.9630 61° Northeast 498 573 33,000  Level FlightAware
08:00PM 45.1860 -78.8240 61° Northeast 499 574 33,000  Level FlightAware
08:01PM 45.2310 -78.7100 61° Northeast 498 573 33,000  Level FlightAware
08:01PM 45.2810 -78.5830 61° Northeast 499 574 33,000  Level FlightAware
08:02PM 45.3240 -78.4750 60° Northeast 499 574 33,000  Level FlightAware
08:03PM 45.3750 -78.3420 61° Northeast 499 574 33,000  Level FlightAware
08:03PM 45.4200 -78.2260 61° Northeast 499 574 33,000  Level FlightAware
08:04PM 45.4650 -78.1100 61° Northeast 499 574 33,000  Level FlightAware
08:05PM 45.5090 -77.9950 61° Northeast 498 573 33,000  Level FlightAware
08:05PM 45.5580 -77.8660 61° Northeast 498 573 33,000  Level FlightAware
08:06PM 45.6060 -77.7390 62° Northeast 498 573 33,000  Level FlightAware
08:07PM 45.6500 -77.6220 62° Northeast 499 574 33,000  Level FlightAware
08:08PM 45.6950 -77.5090 60° Northeast 499 574 33,000  Level FlightAware
08:08PM 45.7430 -77.3900 60° Northeast 500 575 33,000  Level FlightAware
08:09PM 45.7950 -77.2640 59° Northeast 500 575 33,000  Level FlightAware
08:10PM 45.8420 -77.1460 60° Northeast 501 577 33,000  Level FlightAware
08:11PM 45.9090 -76.9760 60° Northeast 502 578 33,000  Level FlightAware
08:11PM 45.9480 -76.8780 60° Northeast 503 579 33,000  Level FlightAware
08:12PM 46.0080 -76.7270 60° Northeast 503 579 33,000  Level FlightAware
08:13PM 46.0670 -76.5790 60° Northeast 504 580 33,000  Level FlightAware
08:14PM 46.1160 -76.4510 61° Northeast 504 580 33,000  Level FlightAware
08:14PM 46.1630 -76.3330 60° Northeast 505 581 33,000  Level FlightAware
08:15PM 46.2140 -76.2010 61° Northeast 506 582 33,000  Level FlightAware
08:16PM 46.2590 -76.0830 61° Northeast 505 581 33,000  Level FlightAware
08:16PM 46.3110 -75.9510 60° Northeast 505 581 33,000  Level FlightAware
08:17PM 46.3560 -75.8320 61° Northeast 505 581 33,000  Level FlightAware
08:18PM 46.3900 -75.7450 60° Northeast 506 582 33,000  Level FlightAware
08:18PM 46.4350 -75.6260 61° Northeast 505 581 33,000  Level FlightAware
08:19PM 46.4860 -75.4920 61° Northeast 506 582 33,000  Level FlightAware
08:20PM 46.5310 -75.3740 61° Northeast 504 580 33,000  Level FlightAware
08:20PM 46.5740 -75.2590 61° Northeast 505 581 33,000  Level FlightAware
08:21PM 46.6260 -75.1220 61° Northeast 504 580 33,000  Level FlightAware
08:22PM 46.6710 -75.0030 61° Northeast 505 581 33,000  Level FlightAware
08:23PM 46.7210 -74.8700 61° Northeast 505 581 33,000  Level FlightAware
08:23PM 46.7660 -74.7490 61° Northeast 505 581 33,000  Level FlightAware
08:24PM 46.8050 -74.6440 61° Northeast 505 581 33,000  Level FlightAware
08:25PM 46.8620 -74.4880 62° Northeast 507 583 33,000  Level FlightAware
08:25PM 46.9070 -74.3690 61° Northeast 506 582 33,000  Level FlightAware
08:26PM 46.9570 -74.2330 62° Northeast 507 583 33,000  Level FlightAware
08:27PM 47.0010 -74.1110 62° Northeast 507 583 33,000  Level FlightAware
08:27PM 47.0440 -73.9920 62° Northeast 506 582 33,000  Level FlightAware
08:28PM 47.0940 -73.8560 62° Northeast 506 582 33,000  Level FlightAware
08:29PM 47.1380 -73.7340 62° Northeast 506 582 33,000  Level FlightAware
08:30PM 47.1870 -73.5980 62° Northeast 505 581 33,000  Level FlightAware
08:30PM 47.2310 -73.4760 62° Northeast 504 580 33,000  Level FlightAware
08:31PM 47.2740 -73.3550 62° Northeast 503 579 33,000  Level FlightAware
08:32PM 47.3220 -73.2190 62° Northeast 502 578 33,000  Level FlightAware
08:32PM 47.3640 -73.0990 63° Northeast 500 575 33,000  Level FlightAware
08:33PM 47.4060 -72.9780 63° Northeast 500 575 33,000  Level FlightAware
08:34PM 47.4540 -72.8420 62° Northeast 499 574 33,000  Level FlightAware
08:34PM 47.4960 -72.7220 63° Northeast 500 575 33,000  Level FlightAware
08:35PM 47.5430 -72.5850 63° Northeast 500 575 33,000  Level FlightAware
08:36PM 47.5860 -72.4630 62° Northeast 500 575 33,000  Level FlightAware
08:37PM 47.6330 -72.3260 63° Northeast 501 577 33,000  Level FlightAware
08:37PM 47.6750 -72.2040 63° Northeast 503 579 33,000  Level FlightAware
08:38PM 47.7160 -72.0830 63° Northeast 503 579 33,000  Level FlightAware
08:39PM 47.7640 -71.9430 63° Northeast 504 580 33,000  Level FlightAware
08:39PM 47.8050 -71.8200 64° Northeast 506 582 33,000  Level FlightAware
08:40PM 47.8520 -71.6810 63° Northeast 507 583 33,000  Level FlightAware
08:41PM 47.8940 -71.5560 63° Northeast 507 583 33,000  Level FlightAware
08:41PM 47.9360 -71.4310 63° Northeast 508 585 33,000  Level FlightAware
08:42PM 47.9830 -71.2890 64° Northeast 509 586 33,000  Level FlightAware
08:43PM 48.0240 -71.1630 64° Northeast 509 586 33,000  Level FlightAware
08:44PM 48.0700 -71.0220 64° Northeast 511 588 33,000  Level FlightAware
08:44PM 48.1100 -70.8970 64° Northeast 512 589 33,000  Level FlightAware
08:45PM 48.1510 -70.7680 64° Northeast 512 589 33,000  Level FlightAware
08:46PM 48.1970 -70.6270 64° Northeast 514 592 33,000  Level FlightAware
08:46PM 48.2350 -70.5080 64° Northeast 513 590 33,000  Level FlightAware
08:47PM 48.2790 -70.3700 64° Northeast 513 590 33,000  Level FlightAware
08:48PM 48.3130 -70.2620 65° Northeast 515 593 33,000  Level FlightAware
08:48PM 48.3610 -70.1130 64° Northeast 515 593 33,000  Level FlightAware
08:49PM 48.3160 -70.2530 244° Southwest 513 590 33,000  Level FlightAware
08:50PM 48.3250 -70.2250 64° Northeast 513 590 33,000  Level FlightAware
08:50PM 48.3610 -70.1160 64° Northeast 513 590 33,000  Level FlightAware
08:51PM 48.3960 -70.0070 64° Northeast 513 590 33,000  Level FlightAware
08:52PM 48.4310 -69.8980 64° Northeast 513 590 33,000  Level FlightAware
08:52PM 48.4670 -69.7880 64° Northeast 513 590 33,000  Level FlightAware
08:53PM 48.5110 -69.6520 64° Northeast 513 590 33,000  Level FlightAware
08:54PM 48.5460 -69.5420 64° Northeast 513 590 33,000  Level FlightAware
08:55PM 48.5820 -69.4320 64° Northeast 513 590 33,000  Level FlightAware
08:55PM 48.6170 -69.3230 64° Northeast 513 590 33,000  Level FlightAware
08:56PM 48.6610 -69.1860 64° Northeast 513 590 33,000  Level FlightAware
08:57PM 48.6970 -69.0760 64° Northeast 513 590 33,000  Level FlightAware
08:57PM 48.7320 -68.9660 64° Northeast 513 590 33,000  Level FlightAware
08:58PM 48.7670 -68.8560 64° Northeast 513 590 33,000  Level FlightAware
08:59PM 48.8030 -68.7460 64° Northeast 513 590 33,000  Level FlightAware
08:59PM 49.1500 -68.0833 64° Northeast 530 610 33,000  Level Gander Center
08:59PM 49.1833 -67.9833 63° Northeast 520 598 33,000  Level Montreal Center
09:00PM 49.1833 -67.9833 63° Northeast 530 610 33,000  Level Moncton Center
09:00PM 49.2667 -67.7833 57° Northeast 530 610 33,000  Level Montreal Center
09:01PM 49.3333 -67.6000 61° Northeast 530 610 33,000  Level Montreal Center
09:02PM 49.4333 -67.4000 52° Northeast 530 610 33,000  Level Montreal Center
09:03PM 49.5167 -67.2167 55° Northeast 530 610 33,000  Level Montreal Center
09:04PM 49.6000 -67.0000 59° Northeast 530 610 33,000  Level Montreal Center
09:05PM 49.6667 -66.8333 58° Northeast 540 621 33,000  Level Montreal Center
09:06PM 49.7500 -66.6333 57° Northeast 540 621 33,000  Level Montreal Center
09:07PM 49.8333 -66.4333 57° Northeast 540 621 33,000  Level Montreal Center
09:08PM 49.9167 -66.2333 57° Northeast 540 621 33,000  Level Montreal Center
09:09PM 49.9833 -66.0333 63° Northeast 540 621 33,000  Level Montreal Center
09:10PM 50.0667 -65.8333 57° Northeast 540 621 33,000  Level Montreal Center
09:11PM 50.1500 -65.6167 59° Northeast 550 633 33,000  Level Montreal Center
09:12PM 50.2333 -65.4167 57° Northeast 550 633 33,000  Level Montreal Center
09:13PM 50.3167 -65.2167 57° Northeast 550 633 33,000  Level Montreal Center
09:14PM 50.3833 -65.0333 60° Northeast 540 621 33,000  Level Montreal Center
09:15PM 50.4500 -64.9333 44° Northeast 550 633 33,000  Level Gander Center
09:16PM 50.5167 -64.7333 62° Northeast 540 621 33,000  Level Gander Center
09:17PM 50.6167 -64.5167 54° Northeast 540 621 33,000  Level Gander Center
09:18PM 50.6833 -64.3167 62° Northeast 540 621 33,000  Level Gander Center
09:19PM 50.7167 -64.2333 58° Northeast 540 621 33,000  Level Moncton Center
09:20PM 50.8000 -64.0333 57° Northeast 540 621 33,000  Level Moncton Center
09:20PM 50.8333 -63.9000 68° East 540 621 33,000  Level Gander Center
09:21PM 50.8667 -63.8167 58° Northeast 540 621 33,000  Level Moncton Center
09:22PM 50.9500 -63.6333 54° Northeast 540 621 33,000  Level Moncton Center
09:22PM 50.9833 -63.4833 71° East 540 621 33,000  Level Gander Center
09:23PM 51.0500 -63.3000 60° Northeast 550 633 33,000  Level Gander Center
09:24PM 51.1500 -63.0667 56° Northeast 550 633 33,000  Level Gander Center
09:25PM 51.2167 -62.8833 60° Northeast 550 633 33,000  Level Gander Center
09:26PM 51.2500 -62.7667 65° Northeast 550 633 33,000  Level Moncton Center
09:27PM 51.3167 -62.5500 64° Northeast 550 633 33,000  Level Moncton Center
09:27PM 51.3667 -62.4667 46° Northeast 550 633 33,000  Level Gander Center
09:28PM 51.4333 -62.2167 67° East 550 633 33,000  Level Gander Center
09:29PM 51.5000 -62.0000 64° Northeast 550 633 33,000  Level Gander Center
09:30PM 51.5833 -61.8000 56° Northeast 550 633 33,000  Level Gander Center
09:31PM 51.6500 -61.5833 64° Northeast 550 633 33,000  Level Gander Center
09:32PM 51.7000 -61.4833 51° Northeast 550 633 33,000  Level Moncton Center
09:33PM 51.7667 -61.2667 63° Northeast 540 621 33,000  Level Moncton Center
09:34PM 51.8333 -61.0333 65° Northeast 540 621 33,000  Level Moncton Center
09:34PM 51.8667 -60.9500 57° Northeast 540 621 33,000  Level Gander Center
09:35PM 51.9333 -60.7333 63° Northeast 530 610 33,000  Level Gander Center
09:36PM 51.9833 -60.6167 55° Northeast 530 610 33,000  Level Moncton Center
09:37PM 52.0500 -60.4167 61° Northeast 530 610 33,000  Level Moncton Center
09:37PM 52.0833 -60.3000 65° Northeast 530 610 33,000  Level Gander Center
09:38PM 52.1333 -60.2000 51° Northeast 530 610 33,000  Level Moncton Center
09:39PM 52.2000 -60.0000 61° Northeast 530 610 33,000  Level Moncton Center
09:40PM 52.2833 -59.8000 56° Northeast 530 610 33,000  Level Moncton Center
09:40PM 52.3167 -59.7000 61° Northeast 520 598 33,000  Level Gander Center
09:41PM 52.4000 -59.4667 60° Northeast 530 610 33,000  Level Gander Center
09:42PM 52.4667 -59.2833 59° Northeast 530 610 33,000  Level Gander Center
09:43PM 52.5333 -59.0833 61° Northeast 530 610 33,000  Level Gander Center
09:44PM 52.6000 -58.8667 63° Northeast 530 610 33,000  Level Gander Center
09:45PM 52.6333 -58.7500 65° Northeast 530 610 33,000  Level Moncton Center
09:46PM 52.7167 -58.5333 58° Northeast 530 610 33,000  Level Moncton Center
09:46PM 52.7667 -58.4333 50° Northeast 530 610 33,000  Level Gander Center
09:47PM 52.8167 -58.2167 69° East 530 610 33,000  Level Gander Center
09:48PM 52.8667 -58.1000 55° Northeast 530 610 33,000  Level Moncton Center
09:49PM 52.9333 -57.9000 61° Northeast 530 610 33,000  Level Moncton Center
09:50PM 53.0000 -57.7000 61° Northeast 520 598 33,000  Level Moncton Center
09:50PM 53.0333 -57.5833 65° Northeast 520 598 33,000  Level Gander Center
09:51PM 53.1000 -57.3500 64° Northeast 520 598 33,000 300 Level Gander Center
09:52PM 53.1333 -57.2500 61° Northeast 520 598 33,500 660 Climbing Moncton Center
09:53PM 53.2000 -57.0500 61° Northeast 520 598 34,000 240 Climbing Moncton Center
09:54PM 53.2667 -56.8333 63° Northeast 520 598 34,000  Level Moncton Center
09:55PM 53.3500 -56.6333 55° Northeast 510 587 34,000  Level Moncton Center
09:55PM 53.3833 -56.5167 64° Northeast 510 587 34,000  Level Gander Center
09:56PM 53.4167 -56.4167 61° Northeast 520 598 34,000  Level Moncton Center
09:57PM 53.4667 -56.1833 70° East 530 610 34,000  Level Moncton Center
09:58PM 53.5500 -55.9667 57° Northeast 530 610 34,000  Level Moncton Center
09:58PM 53.5833 -55.8667 61° Northeast 540 621 34,000  Level Gander Center
09:59PM 53.6500 -55.6333 64° Northeast 540 621 34,000  Level Gander Center
10:00PM 53.7167 -55.4000 64° Northeast 540 621 34,000  Level Gander Center
10:01PM 53.7833 -55.1667 64° Northeast 540 621 34,000  Level Gander Center
10:02PM 53.8500 -54.9500 62° Northeast 540 621 34,000  Level Gander Center
10:03PM 53.9000 -54.7167 70° East 530 610 34,000  Level Gander Center
10:04PM 53.9667 -54.4833 64° Northeast 520 598 34,000  Level Gander Center
10:05PM 54.0000 -54.2833 74° East 520 598 34,000  Level Gander Center
10:06PM 54.0500 -54.0500 70° East 530 610 34,000  Level Gander Center
10:07PM 54.1000 -53.8333 68° East 530 610 34,000  Level Gander Center
10:08PM 54.1500 -53.6000 70° East 520 598 34,000  Level Gander Center
10:09PM 54.2167 -53.3500 65° Northeast 520 598 34,000  Level Gander Center
10:10PM 54.2667 -53.1167 70° East 520 598 34,000  Level Gander Center
10:11PM 54.3167 -52.9000 68° East 520 598 34,000  Level Gander Center
10:12PM 54.3667 -52.6667 70° East 520 598 34,000  Level Gander Center
10:13PM 54.4333 -52.4167 65° Northeast 520 598 34,000  Level Gander Center
10:14PM 54.4833 -52.2000 68° East 520 598 34,000  Level Gander Center
10:15PM 54.5333 -51.9667 70° East 520 598 34,000  Level Gander Center
10:16PM 54.5833 -51.7500 68° East 520 598 34,000  Level Gander Center
10:17PM 54.6333 -51.5000 71° East 520 598 34,000  Level Gander Center
10:18PM 54.6833 -51.2667 70° East 520 598 34,000  Level Gander Center
10:19PM 54.7333 -51.0500 68° East 520 598 34,000  Level Gander Center
10:20PM 54.7667 -50.8000 77° East 510 587 34,000  Level Gander Center
10:21PM 54.8167 -50.5833 68° East 510 587 34,000  Level Gander Center
10:22PM 54.8667 -50.3333 71° East 510 587 34,000  Level Gander Center
10:23PM 54.9167 -50.1167 68° East 510 587 34,000  Level Gander Center
10:25PM 54.9713 -49.7923 66° East  Level Estimated
10:32PM 55.3543 -48.2740 66° East  Level FlightAware Approximate
10:33PM 55.4075 -48.0547 67° East  Level FlightAware Approximate
10:34PM 55.4603 -47.8348 67° East  Level FlightAware Approximate
10:35PM 55.5127 -47.6144 67° East  Level FlightAware Approximate
10:36PM 55.5647 -47.3933 67° East  Level FlightAware Approximate
10:37PM 55.6162 -47.1717 68° East  Level FlightAware Approximate
10:38PM 55.6674 -46.9495 68° East  Level FlightAware Approximate
10:39PM 55.7182 -46.7267 68° East  Level FlightAware Approximate
10:40PM 55.7686 -46.5034 68° East  Level FlightAware Approximate
10:41PM 55.8185 -46.2794 68° East  Level FlightAware Approximate
10:42PM 55.8681 -46.0549 68° East  Level FlightAware Approximate
10:43PM 55.9173 -45.8299 69° East  Level FlightAware Approximate
10:44PM 55.9660 -45.6042 69° East  Level FlightAware Approximate
10:45PM 56.0143 -45.3780 69° East  Level FlightAware Approximate
10:46PM 56.0622 -45.1512 69° East  Level FlightAware Approximate
10:47PM 56.1097 -44.9239 69° East  Level FlightAware Approximate
10:48PM 56.1568 -44.6960 70° East  Level FlightAware Approximate
10:49PM 56.2035 -44.4675 70° East  Level FlightAware Approximate
10:50PM 56.2497 -44.2385 70° East  Level FlightAware Approximate
10:51PM 56.2955 -44.0089 70° East  Level FlightAware Approximate
10:52PM 56.3409 -43.7788 70° East  Level FlightAware Approximate
10:53PM 56.3859 -43.5482 71° East  Level FlightAware Approximate
10:54PM 56.4304 -43.3170 71° East  Level FlightAware Approximate
10:55PM 56.4745 -43.0852 71° East  Level FlightAware Approximate
10:56PM 56.5193 -42.8448 72° East  Level FlightAware Approximate
10:57PM 56.5616 -42.6115 72° East  Level FlightAware Approximate
10:58PM 56.6035 -42.3776 72° East  Level FlightAware Approximate
10:59PM 56.6450 -42.1432 72° East  Level FlightAware Approximate
11:00PM 56.6861 -41.9083 72° East  Level FlightAware Approximate
11:01PM 56.7267 -41.6729 72° East  Level FlightAware Approximate
11:02PM 56.7668 -41.4370 73° East  Level FlightAware Approximate
11:03PM 56.8065 -41.2006 73° East  Level FlightAware Approximate
11:04PM 56.8458 -40.9637 73° East  Level FlightAware Approximate
11:05PM 56.8846 -40.7262 73° East  Level FlightAware Approximate
11:06PM 56.9229 -40.4883 73° East  Level FlightAware Approximate
11:07PM 56.9608 -40.2500 74° East  Level FlightAware Approximate
11:08PM 56.9983 -40.0111 74° East  Level FlightAware Approximate
11:09PM 57.0092 -39.7634 86° East  Level FlightAware Approximate
11:10PM 57.0184 -39.5152 86° East  Level FlightAware Approximate
11:11PM 57.0271 -39.2669 86° East  Level FlightAware Approximate
11:12PM 57.0354 -39.0185 86° East  Level FlightAware Approximate
11:13PM 57.0431 -38.7699 87° East  Level FlightAware Approximate
11:14PM 57.0503 -38.5213 87° East  Level FlightAware Approximate
11:15PM 57.0570 -38.2725 87° East  Level FlightAware Approximate
11:16PM 57.0633 -38.0237 87° East  Level FlightAware Approximate
11:17PM 57.0690 -37.7748 87° East  Level FlightAware Approximate
11:18PM 57.0743 -37.5258 88° East  Level FlightAware Approximate
11:19PM 57.0791 -37.2767 88° East  Level FlightAware Approximate
11:20PM 57.0833 -37.0276 88° East  Level FlightAware Approximate
11:21PM 57.0871 -36.7785 88° East  Level FlightAware Approximate
11:22PM 57.0904 -36.5293 89° East  Level FlightAware Approximate
11:23PM 57.0932 -36.2800 89° East  Level FlightAware Approximate
11:24PM 57.0955 -36.0307 89° East  Level FlightAware Approximate
11:25PM 57.0973 -35.7814 89° East  Level FlightAware Approximate
11:26PM 57.0986 -35.5321 89° East  Level FlightAware Approximate
11:27PM 57.0994 -35.2827 90° East  Level FlightAware Approximate
11:28PM 57.0997 -35.0334 90° East  Level FlightAware Approximate
11:29PM 57.0995 -34.7840 90° East  Level FlightAware Approximate
11:30PM 57.0988 -34.5346 90° East  Level FlightAware Approximate
11:31PM 57.0977 -34.2853 90° East  Level FlightAware Approximate
11:32PM 57.0960 -34.0360 91° East  Level FlightAware Approximate
11:33PM 57.0938 -33.7867 91° East  Level FlightAware Approximate
11:34PM 57.0912 -33.5374 91° East  Level FlightAware Approximate
11:35PM 57.0880 -33.2882 91° East  Level FlightAware Approximate
11:36PM 57.0844 -33.0390 91° East  Level FlightAware Approximate
11:37PM 57.0802 -32.7899 92° East  Level FlightAware Approximate
11:38PM 57.0756 -32.5408 92° East  Level FlightAware Approximate
11:39PM 57.0705 -32.2918 92° East  Level FlightAware Approximate
11:40PM 57.0649 -32.0429 92° East  Level FlightAware Approximate
11:41PM 57.0588 -31.7940 92° East  Level FlightAware Approximate
11:42PM 57.0522 -31.5453 93° East  Level FlightAware Approximate
11:43PM 57.0451 -31.2966 93° East  Level FlightAware Approximate
11:44PM 57.0375 -31.0480 93° East  Level FlightAware Approximate
11:45PM 57.0294 -30.7995 93° East  Level FlightAware Approximate
11:46PM 57.0208 -30.5512 94° East  Level FlightAware Approximate
11:47PM 57.0117 -30.3029 94° East  Level FlightAware Approximate
11:48PM 57.0023 -30.0571 94° East  Level FlightAware Approximate
11:49PM 56.9882 -29.8120 97° East  Level FlightAware Approximate
11:50PM 56.9723 -29.5674 97° East  Level FlightAware Approximate
11:51PM 56.9560 -29.3230 97° East  Level FlightAware Approximate
11:52PM 56.9393 -29.0789 97° East  Level FlightAware Approximate
11:53PM 56.9220 -28.8349 97° East  Level FlightAware Approximate
11:54PM 56.9043 -28.5912 97° East  Level FlightAware Approximate
11:55PM 56.8860 -28.3477 98° East  Level FlightAware Approximate
11:56PM 56.8673 -28.1045 98° East  Level FlightAware Approximate
11:57PM 56.8481 -27.8615 98° East  Level FlightAware Approximate
11:58PM 56.8284 -27.6188 98° East  Level FlightAware Approximate
11:59PM 56.8083 -27.3763 99° East  Level FlightAware Approximate
12:00AM 56.7877 -27.1341 99° East  Level FlightAware Approximate
12:01AM 56.7678 -26.8918 98° East  Level FlightAware Approximate
12:02AM 56.7477 -26.6497 98° East  Level FlightAware Approximate
12:03AM 56.7272 -26.4079 99° East  Level FlightAware Approximate
12:04AM 56.7062 -26.1663 99° East  Level FlightAware Approximate
12:05AM 56.6848 -25.9250 99° East  Level FlightAware Approximate
12:06AM 56.6628 -25.6840 99° East  Level FlightAware Approximate
12:07AM 56.6404 -25.4432 100° East  Level FlightAware Approximate
12:08AM 56.6176 -25.2028 100° East  Level FlightAware Approximate
12:09AM 56.5943 -24.9626 100° East  Level FlightAware Approximate
12:10AM 56.5705 -24.7227 100° East  Level FlightAware Approximate
12:11AM 56.5462 -24.4832 100° East  Level FlightAware Approximate
12:12AM 56.5215 -24.2439 101° East  Level FlightAware Approximate
12:13AM 56.4964 -24.0050 101° East  Level FlightAware Approximate
12:14AM 56.4708 -23.7664 101° East  Level FlightAware Approximate
12:15AM 56.4447 -23.5281 101° East  Level FlightAware Approximate
12:16AM 56.4182 -23.2901 101° East  Level FlightAware Approximate
12:17AM 56.3912 -23.0525 102° East  Level FlightAware Approximate
12:18AM 56.3637 -22.8152 102° East  Level FlightAware Approximate
12:19AM 56.3358 -22.5783 102° East  Level FlightAware Approximate
12:20AM 56.3075 -22.3417 102° East  Level FlightAware Approximate
12:21AM 56.2787 -22.1055 102° East  Level FlightAware Approximate
12:22AM 56.2494 -21.8696 102° East  Level FlightAware Approximate
12:23AM 56.2197 -21.6341 103° East  Level FlightAware Approximate
12:24AM 56.1896 -21.3989 103° East  Level FlightAware Approximate
12:25AM 56.1590 -21.1641 103° East  Level FlightAware Approximate
12:26AM 56.1280 -20.9297 103° East  Level FlightAware Approximate
12:27AM 56.0965 -20.6957 103° East  Level FlightAware Approximate
12:28AM 56.0646 -20.4621 104° East  Level FlightAware Approximate
12:29AM 56.0322 -20.2288 104° East  Level FlightAware Approximate
12:30AM 55.9995 -19.9959 101° East  Level FlightAware Approximate
12:31AM 55.9734 -19.7605 101° East  Level FlightAware Approximate
12:32AM 55.9468 -19.5255 101° East  Level FlightAware Approximate
12:33AM 55.9198 -19.2908 102° East  Level FlightAware Approximate
12:34AM 55.8923 -19.0564 102° East  Level FlightAware Approximate
12:35AM 55.8644 -18.8224 102° East  Level FlightAware Approximate
12:36AM 55.8360 -18.5887 102° East  Level FlightAware Approximate
12:37AM 55.8079 -18.3550 102° East  Level FlightAware Approximate
12:38AM 55.7794 -18.1217 102° East  Level FlightAware Approximate
12:39AM 55.7505 -17.8887 102° East  Level FlightAware Approximate
12:40AM 55.7212 -17.6561 103° East  Level FlightAware Approximate
12:41AM 55.6914 -17.4238 103° East  Level FlightAware Approximate
12:42AM 55.6611 -17.1919 103° East  Level FlightAware Approximate
12:43AM 55.6305 -16.9604 103° East  Level FlightAware Approximate
12:44AM 55.5993 -16.7292 103° East  Level FlightAware Approximate
12:45AM 55.5679 -16.4988 103° East  Level FlightAware Approximate
12:46AM 55.5359 -16.2688 104° East  Level FlightAware Approximate
12:47AM 55.5036 -16.0392 104° East  Level FlightAware Approximate
12:48AM 55.4708 -15.8099 104° East  Level FlightAware Approximate
12:49AM 55.4376 -15.5811 104° East  Level FlightAware Approximate
12:50AM 55.4040 -15.3526 104° East  Level FlightAware Approximate
12:51AM 55.3700 -15.1245 105° East  Level FlightAware Approximate
12:52AM 55.3355 -14.8969 105° East  Level FlightAware Approximate
12:53AM 55.3006 -14.6696 105° East  Level FlightAware Approximate
12:54AM 55.2653 -14.4427 105° East  Level FlightAware Approximate
12:55AM 55.2296 -14.2162 105° East  Level FlightAware Approximate
12:56AM 55.1934 -13.9902 106° East  Level FlightAware Approximate
12:56AM 54.7430 -13.0980 106° East 504 580 34,000  Level FlightAware
12:57AM 55.1568 -13.7645 106° East  Level FlightAware Approximate
12:58AM 55.1199 -13.5393 106° East  Level FlightAware Approximate
12:59AM 55.0825 -13.3144 106° East  Level FlightAware Approximate
01:00AM 55.0447 -13.0900 106° East  Level FlightAware Approximate
01:00AM 54.6220 -12.2200 103° East 508 585 34,000  Level FlightAware
01:01AM 54.5660 -11.8150 103° East 511 588 34,000  Level FlightAware
01:02AM 54.5430 -11.6420 103° East 510 587 34,000  Level FlightAware
01:03AM 54.5180 -11.4630 103° East 510 587 34,000  Level FlightAware
01:03AM 54.4970 -11.3110 103° East 510 587 34,000  Level FlightAware
01:04AM 54.4730 -11.1310 103° East 509 586 34,000 600 Level FlightAware
01:05AM 54.4550 -10.9930 103° East 500 575 34,800 720 Climbing FlightAware
01:06AM 54.4320 -10.8200 103° East 485 558 35,000 120 Climbing FlightAware
01:06AM 54.4090 -10.6510 103° East 489 563 35,000  Level FlightAware
01:07AM 54.3870 -10.5020 104° East 494 568 35,000  Level FlightAware
01:08AM 54.3620 -10.3340 104° East 501 577 35,000  Level FlightAware
01:08AM 54.3380 -10.1740 104° East 507 583 35,000  Level FlightAware
01:09AM 54.3140 -10.0190 105° East 510 587 35,000  Level FlightAware
01:10AM 54.2860 -9.8450 105° East 511 588 35,000  Level FlightAware
01:10AM 54.2600 -9.6890 106° East 509 586 35,000  Level FlightAware
01:11AM 54.2320 -9.5150 105° East 508 585 35,000  Level FlightAware
01:12AM 54.2070 -9.3590 105° East 504 580 35,000  Level FlightAware
01:13AM 54.1810 -9.2020 106° East 502 578 35,000  Level FlightAware
01:13AM 54.1530 -9.0380 106° East 498 573 35,000 -1,560 Level FlightAware
01:14AM 54.1242 -8.9435 106° East 466 536 33,400 -2,760 Descending FlightAware UK
01:14AM 54.1126 -8.8758 106° East 464 534 33,400 4,140 Level FlightAware UK
01:14AM 54.1270 -8.8810 106° East 493 567 35,000  Climbing FlightAware
01:14AM 54.0972 -8.7859 106° East 462 532 33,400 -2,640 Descending FlightAware UK
01:15AM 54.0858 -8.7189 106° East 464 534 33,400 3,660 Level FlightAware UK
01:15AM 54.0980 -8.7100 106° East 488 562 35,000 240 Climbing FlightAware
01:15AM 54.0704 -8.6299 106° East 454 522 33,500 -2,880 Descending FlightAware UK
01:15AM 54.0586 -8.5635 107° East 458 527 33,400 3,720 Descending FlightAware UK
01:15AM 54.0720 -8.5620 107° East 484 557 35,000  Climbing FlightAware
01:16AM 54.0430 -8.4746 107° East 456 525 33,400 -2,700 Descending FlightAware UK
01:16AM 54.0318 -8.4093 106° East 458 527 33,400 4,320 Level FlightAware UK
01:16AM 54.0470 -8.4200 106° East 480 552 35,000  Climbing FlightAware
01:16AM 54.0165 -8.3225 106° East 454 522 33,400  Descending FlightAware UK
01:17AM 54.0180 -8.2530 106° East 478 550 35,000  Climbing FlightAware
01:17AM 53.9902 -8.1698 106° East 444 511 33,400 -2,760 Descending FlightAware UK
01:17AM 53.9788 -8.1043 107° East 448 516 33,400 4,140 Level FlightAware UK
01:17AM 53.9920 -8.1090 107° East 478 550 35,000  Climbing FlightAware
01:18AM 53.9632 -8.0177 107° East 450 518 33,400 -2,640 Descending FlightAware UK
01:18AM 53.9514 -7.9529 107° East 450 518 33,400 4,560 Level FlightAware UK
01:18AM 53.9670 -7.9640 107° East 476 548 35,000 300 Climbing FlightAware
01:18AM 53.9398 -7.8883 107° East 450 518 33,500 -2,760 Descending FlightAware UK
01:19AM 53.9281 -7.8236 107° East 450 518 33,500 3,000 Level FlightAware UK
01:19AM 53.9380 -7.8030 107° East 477 549 35,000  Climbing FlightAware
01:19AM 53.9088 -7.7156 107° East 448 516 33,500 -2,520 Descending FlightAware UK
01:20AM 53.8972 -7.6506 107° East 448 516 33,500 4,080 Level FlightAware UK
01:20AM 53.9130 -7.6640 107° East 482 555 35,000  Climbing FlightAware
01:20AM 53.8816 -7.5638 107° East 454 522 33,500 -2,400 Descending FlightAware UK
01:20AM 53.8697 -7.4986 107° East 452 520 33,500 3,600 Level FlightAware UK
01:20AM 53.8820 -7.4990 107° East 486 559 35,000  Climbing FlightAware
01:21AM 53.8535 -7.4113 107° East 456 525 33,500 -2,580 Descending FlightAware UK
01:21AM 53.8411 -7.3453 108° East 456 525 33,500 3,900 Level FlightAware UK
01:21AM 53.8560 -7.3590 108° East 488 562 35,000  Climbing FlightAware
01:21AM 53.8247 -7.2563 108° East 456 525 33,500 -2,460 Descending FlightAware UK
01:22AM 53.8121 -7.1899 108° East 458 527 33,500 3,420 Level FlightAware UK
01:22AM 53.8240 -7.1880 108° East 491 565 35,000  Climbing FlightAware
01:22AM 53.7955 -7.1016 108° East 462 532 33,500 -2,700 Descending FlightAware UK
01:22AM 53.7831 -7.0351 107° East 464 534 33,500 3,720 Level FlightAware UK
01:22AM 53.7960 -7.0400 107° East 491 565 35,000  Climbing FlightAware
01:23AM 53.7662 -6.9467 107° East 464 534 33,500 -2,520 Descending FlightAware UK
01:23AM 53.7533 -6.8801 108° East 470 541 33,500 4,080 Level FlightAware UK
01:23AM 53.7680 -6.8960 108° East 493 567 35,000  Climbing FlightAware
01:23AM 53.7361 -6.7914 108° East 466 536 33,500 -2,400 Descending FlightAware UK
01:24AM 53.7229 -6.7248 109° East 464 534 33,500 3,600 Level FlightAware UK
01:24AM 53.7380 -6.7460 109° East 497 572 35,000  Climbing FlightAware
01:24AM 53.7052 -6.6360 109° East 464 534 33,500 -2,580 Descending FlightAware UK
01:24AM 53.6920 -6.5692 109° East 462 532 33,500 3,900 Level FlightAware UK
01:24AM 53.7060 -6.5860 109° East 498 573 35,000 -300 Climbing FlightAware
01:25AM 53.6742 -6.4802 109° East 460 529 33,400 -2,460 Descending FlightAware UK
01:25AM 53.6613 -6.4133 108° East 464 534 33,500 3,660 Climbing FlightAware UK
01:25AM 53.6730 -6.4190 108° East 497 572 35,000  Climbing FlightAware
01:26AM 53.6444 -6.3239 108° East 468 539 33,500 -2,700 Descending FlightAware UK
01:26AM 53.6315 -6.2569 108° East 470 541 33,500 3,720 Level FlightAware UK
01:26AM 53.6440 -6.2700 108° East 497 572 35,000  Climbing FlightAware
01:26AM 53.6142 -6.1678 108° East 474 545 33,500 -2,520 Descending FlightAware UK
01:27AM 53.6011 -6.1011 108° East 474 545 33,500 4,080 Level FlightAware UK
01:27AM 53.6160 -6.1260 108° East 495 570 35,000  Climbing FlightAware
01:27AM 53.5837 -6.0115 108° East 474 545 33,500 -2,400 Descending FlightAware UK
01:27AM 53.5707 -5.9450 108° East 474 545 33,500  Level FlightAware UK
01:28AM 53.5574 -5.8781 109° East 474 545 33,500  Level FlightAware UK
01:28AM 53.5444 -5.8129 108° East 468 539 33,500  Level FlightAware UK
01:28AM 53.5314 -5.7472 108° East 464 534 33,500 -180 Level FlightAware UK
01:28AM 53.5263 -5.6783 97° East 464 534 33,400 3,900 Descending FlightAware UK
01:28AM 53.5390 -5.6980 97° East 496 571 35,000 240 Climbing FlightAware
01:29AM 53.5204 -5.5856 97° East 462 532 33,500 -2,460 Descending FlightAware UK
01:29AM 53.5161 -5.5164 96° East 458 527 33,500 4,260 Level FlightAware UK
01:29AM 53.5300 -5.5470 96° East 494 568 35,000 -360 Climbing FlightAware
01:29AM 53.5126 -5.4472 96° East 460 529 33,400 -2,940 Descending FlightAware UK
01:30AM 53.5108 -5.3781 93° East 460 529 33,400 3,840 Level FlightAware UK
01:30AM 53.5230 -5.3930 93° East 492 566 35,000  Climbing FlightAware
01:30AM 53.5076 -5.2851 93° East 460 529 33,400 -2,760 Descending FlightAware UK
01:30AM 53.5052 -5.2171 93° East 458 527 33,400 3,420 Level FlightAware UK
01:31AM 53.5170 -5.2220 93° East 488 562 35,000  Climbing FlightAware
01:31AM 53.5010 -5.1022 93° East 456 525 33,400 -2,580 Descending FlightAware UK
01:31AM 53.4982 -5.0339 94° East 456 525 33,400 4,800 Level FlightAware UK
01:31AM 53.5110 -5.0750 94° East 484 557 35,000 300 Climbing FlightAware
01:32AM 53.4953 -4.9659 94° East 454 522 33,500 -2,700 Descending FlightAware UK
01:32AM 53.4926 -4.8980 94° East 454 522 33,500 3,060 Level FlightAware UK
01:32AM 53.5030 -4.9010 94° East 482 555 35,000  Climbing FlightAware
01:32AM 53.4879 -4.7852 94° East 448 516 33,500 -2,460 Descending FlightAware UK
01:33AM 53.4849 -4.7177 94° East 448 516 33,500 3,420 Level FlightAware UK
01:33AM 53.4960 -4.7390 94° East 481 554 35,000  Climbing FlightAware
01:33AM 53.4810 -4.6269 94° East 446 513 33,500 -2,700 Descending FlightAware UK
01:33AM 53.4781 -4.5600 94° East 444 511 33,500 3,900 Level FlightAware UK
01:33AM 53.4890 -4.5890 94° East 481 554 35,000  Climbing FlightAware
01:34AM 53.4742 -4.4690 94° East 446 513 33,500 -2,520 Descending FlightAware UK
01:34AM 53.4712 -4.4021 94° East 444 511 33,500 4,260 Level FlightAware UK
01:34AM 53.4820 -4.4410 94° East 483 556 35,000  Climbing FlightAware
01:34AM 53.4671 -4.3107 94° East 444 511 33,500 -2,400 Descending FlightAware UK
01:35AM 53.4639 -4.2435 95° East 444 511 33,500 3,720 Level FlightAware UK
01:35AM 53.4740 -4.2690 95° East 485 558 35,000  Climbing FlightAware
01:35AM 53.4585 -4.1291 95° East 448 516 33,500  Descending FlightAware UK
01:35AM 53.4660 -4.1190 95° East 488 562 35,000  Climbing FlightAware
01:36AM 53.4522 -3.9918 95° East 450 518 33,500  Descending FlightAware UK
01:36AM 53.4580 -3.9510 95° East 490 564 35,000  Climbing FlightAware
01:37AM 53.4445 -3.8311 95° East 448 516 33,500 -2,580 Descending FlightAware UK
01:37AM 53.4411 -3.7621 95° East 448 516 33,500 3,900 Level FlightAware UK
01:37AM 53.4500 -3.8040 95° East 493 567 35,000  Climbing FlightAware
01:37AM 53.4361 -3.6691 95° East 450 518 33,500 -2,460 Descending FlightAware UK
01:38AM 53.4323 -3.5998 95° East 448 516 33,500 4,260 Level FlightAware UK
01:38AM 53.4410 -3.6480 95° East 496 571 35,000 8,160 Climbing FlightAware
01:38AM 53.4394 -3.6101 94° East 496 571 35,000 -3,360 Level FlightAware ADS-B
01:38AM 53.4262 -3.4838 94° East 452 520 33,500  Descending FlightAware UK
01:38AM 53.4313 -3.4595 94° East 499 574 35,000  Climbing FlightAware ADS-B
01:39AM 53.4192 -3.3437 94° East 454 522 33,500  Descending FlightAware UK
01:39AM 53.4246 -3.3354 94° East 502 578 35,000  Climbing FlightAware ADS-B
01:39AM 53.4121 -3.2029 94° East 454 522 33,500  Descending FlightAware UK
01:39AM 53.4181 -3.2176 94° East 503 579 35,000  Climbing FlightAware ADS-B
01:40AM 53.4056 -3.0846 94° East 458 527 33,500  Descending FlightAware UK
01:40AM 53.4107 -3.0887 94° East 506 582 35,000  Climbing FlightAware ADS-B
01:40AM 53.3990 -2.9659 94° East 462 532 33,500 -2,700 Descending FlightAware UK
01:41AM 53.3952 -2.8958 95° East 464 534 33,500 3,600 Level FlightAware UK
01:41AM 53.4014 -2.9291 95° East 506 582 35,000  Climbing FlightAware ADS-B
01:41AM 53.3899 -2.8013 95° East 462 532 33,500  Descending FlightAware UK
01:41AM 53.3939 -2.8053 95° East 508 585 35,000  Climbing FlightAware ADS-B
01:41AM 53.3829 -2.6824 95° East 462 532 33,500  Descending FlightAware UK
01:42AM 53.3867 -2.6866 95° East 508 585 35,000 -240 Climbing FlightAware ADS-B
01:42AM 53.3759 -2.5642 95° East 460 529 33,400  Descending FlightAware UK
01:42AM 53.3782 -2.5499 95° East 509 586 35,000 120 Climbing FlightAware ADS-B
01:43AM 53.3674 -2.4224 95° East 460 529 33,500  Descending FlightAware UK
01:43AM 53.3698 -2.4165 95° East 508 585 35,000  Climbing FlightAware ADS-B
01:43AM 53.3587 -2.2807 95° East 458 527 33,500 -2,160 Descending FlightAware UK
01:44AM 53.3526 -2.1866 96° East 458 527 33,500 2,040 Level FlightAware UK
01:44AM 53.3508 -2.1779 96° East 502 578 35,000  Climbing FlightAware ADS-B
01:44AM 53.3377 -2.0481 96° East 450 518 33,500  Descending FlightAware UK
01:44AM 53.3381 -2.0606 96° East 501 577 35,000 -240 Climbing FlightAware ADS-B
01:45AM 53.3255 -1.9332 96° East 450 518 33,400  Descending FlightAware UK
01:45AM 53.3257 -1.9460 96° East 501 577 35,000  Climbing FlightAware ADS-B
01:45AM 53.3135 -1.8175 96° East 450 518 33,400  Descending FlightAware UK
01:45AM 53.3137 -1.8320 96° East 500 575 35,000  Climbing FlightAware ADS-B
01:46AM 53.3017 -1.7026 96° East 448 516 33,400  Descending FlightAware UK
01:46AM 53.2995 -1.6954 96° East 499 574 35,000  Climbing FlightAware ADS-B
01:46AM 53.2856 -1.5419 96° East 450 518 33,400  Descending FlightAware UK
01:47AM 53.2864 -1.5687 96° East 499 574 35,000 180 Climbing FlightAware ADS-B
01:47AM 53.2740 -1.4266 96° East 450 518 33,500 -2,460 Descending FlightAware UK
01:47AM 53.2668 -1.3573 100° East 448 516 33,500 3,420 Level FlightAware UK
01:47AM 53.2687 -1.3996 100° East 500 575 35,000  Climbing FlightAware ADS-B
01:48AM 53.2574 -1.2657 100° East 448 516 33,500  Descending FlightAware UK
01:48AM 53.2564 -1.2820 100° East 501 577 35,000  Climbing FlightAware ADS-B
01:48AM 53.2454 -1.1513 100° East 446 513 33,500  Descending FlightAware UK
01:48AM 53.2440 -1.1673 100° East 501 577 35,000  Climbing FlightAware ADS-B
01:49AM 53.2283 -0.9902 100° East 448 516 33,500  Descending FlightAware UK
01:49AM 53.2310 -1.0500 100° East 500 575 35,000  Climbing FlightAware
01:49AM 53.2137 -0.8528 100° East 450 518 33,500  Descending FlightAware UK
01:49AM 53.2150 -0.8990 100° East 501 577 35,000  Climbing FlightAware
01:50AM 53.2038 -0.7614 100° East 452 520 33,500 -2,340 Descending FlightAware UK
01:50AM 53.1940 -0.6699 100° East 448 516 33,500 3,000 Level FlightAware UK
01:50AM 53.1970 -0.7320 100° East 502 578 35,000 4,080 Climbing FlightAware
01:51AM 53.1891 -0.6619 101° East 501 577 35,000  Level FlightAware ADS-B
01:51AM 53.1762 -0.5450 100° East 501 577 35,000 -1,800 Level FlightAware ADS-B
01:51AM 53.1644 -0.3942 100° East 442 509 33,500  Descending FlightAware UK
01:52AM 53.1634 -0.4290 100° East 502 578 35,000  Climbing FlightAware ADS-B
01:52AM 53.1517 -0.2803 100° East 442 509 33,500  Descending FlightAware UK
01:52AM 53.1503 -0.3154 100° East 503 579 35,000  Climbing FlightAware ADS-B
01:52AM 53.1386 -0.1663 100° East 444 511 33,500  Descending FlightAware UK
01:53AM 53.1371 -0.2002 100° East 502 578 35,000 2,100 Climbing FlightAware ADS-B
01:53AM 53.1235 -0.0843 101° East 503 579 35,000 -1,860 Level FlightAware ADS-B
01:53AM 53.1120 0.0622 101° East 444 511 33,500  Descending FlightAware UK
01:54AM 53.1098 0.0317 101° East 503 579 35,000  Climbing FlightAware ADS-B
01:54AM 53.0987 0.1760 101° East 446 513 33,500  Descending FlightAware UK
01:54AM 53.0957 0.1498 101° East 504 580 35,000  Climbing FlightAware ADS-B
01:54AM 53.0852 0.2897 101° East 446 513 33,500  Descending FlightAware UK
01:55AM 53.0816 0.2674 101° East 505 581 35,000  Climbing FlightAware ADS-B
01:55AM 53.0662 0.4497 101° East 446 513 33,500  Descending FlightAware UK
01:55AM 53.0648 0.4077 101° East 505 581 35,000  Climbing FlightAware ADS-B
01:55AM 53.0552 0.5406 101° East 448 516 33,500  Descending FlightAware UK
01:56AM 53.0497 0.5343 101° East 506 582 35,000  Climbing FlightAware ADS-B
01:56AM 53.0389 0.6779 101° East 454 522 33,500  Descending FlightAware UK
01:56AM 53.0356 0.6503 101° East 504 580 35,000  Climbing FlightAware ADS-B
01:57AM 53.0250 0.7915 101° East 452 520 33,500  Descending FlightAware UK
01:57AM 53.0210 0.7685 101° East 504 580 35,000  Climbing FlightAware ADS-B
01:57AM 53.0081 0.9282 101° East 452 520 33,500  Descending FlightAware UK
01:57AM 53.0070 0.8833 101° East 504 580 35,000 -300 Climbing FlightAware ADS-B
01:58AM 52.9968 1.0187 101° East 452 520 33,400  Descending FlightAware UK
01:58AM 52.9922 1.0016 101° East 502 578 35,000 120 Climbing FlightAware ADS-B
01:58AM 52.9797 1.1536 101° East 452 520 33,500  Descending FlightAware UK
01:58AM 52.9779 1.1156 101° East 500 575 35,000  Climbing FlightAware ADS-B
01:59AM 52.9658 1.2656 101° East 450 518 33,500  Descending FlightAware UK
01:59AM 52.9635 1.2279 101° East 500 575 35,000 2,100 Climbing FlightAware ADS-B
01:59AM 52.9486 1.3456 102° East 498 573 35,000 -1,860 Level FlightAware ADS-B
02:00AM 52.9374 1.4883 102° East 446 513 33,500  Descending FlightAware UK
02:00AM 52.9335 1.4639 102° East 496 571 35,000  Climbing FlightAware ADS-B
02:00AM 52.9231 1.5999 102° East 442 509 33,500  Descending FlightAware UK
02:00AM 52.9189 1.5765 102° East 496 571 35,000  Climbing FlightAware ADS-B
02:01AM 52.9083 1.7105 102° East 442 509 33,500  Descending FlightAware UK
02:01AM 52.9038 1.6928 102° East 495 570 35,000  Climbing FlightAware ADS-B
02:01AM 52.8937 1.8216 102° East 440 506 33,500  Descending FlightAware UK
02:01AM 52.8885 1.8084 102° East 494 568 35,000  Climbing FlightAware ADS-B
02:02AM 52.8731 1.9762 102° East 440 506 33,500  Descending FlightAware UK
02:02AM 52.8710 1.9400 102° East 494 568 35,000  Climbing FlightAware
02:03AM 52.8500 2.1519 102° East 440 506 33,500  Descending FlightAware UK
02:03AM 52.8492 2.1056 102° East 494 568 35,000  Climbing FlightAware ADS-B
02:03AM 52.8382 2.2397 102° East 440 506 33,500  Descending FlightAware UK
02:03AM 52.8300 2.2510 102° East 494 568 35,000  Climbing FlightAware
02:04AM 52.8171 2.3939 102° East 440 506 33,500 -2,580 Descending FlightAware UK
02:04AM 52.8079 2.4595 103° East 442 509 33,500 3,180 Level FlightAware UK
02:04AM 52.8060 2.4210 103° East 495 570 35,000  Climbing FlightAware
02:05AM 52.7926 2.5689 103° East 440 506 33,500 -2,400 Descending FlightAware UK
02:05AM 52.7834 2.6346 103° East 440 506 33,500 4,500 Level FlightAware UK
02:05AM 52.7860 2.5690 103° East 496 571 35,000  Climbing FlightAware
02:05AM 52.7744 2.7004 103° East 444 511 33,500 -2,700 Descending FlightAware UK
02:05AM 52.7562 2.7591 117° Southeast 442 509 33,500 3,720 Level FlightAware UK
02:06AM 52.7550 2.7060 117° Southeast 468 539 35,000  Climbing FlightAware
02:06AM 52.7315 2.8334 117° Southeast 440 506 33,500 -2,460 Descending FlightAware UK
02:06AM 52.7128 2.8900 119° Southeast 440 506 33,500 3,300 Level FlightAware UK
02:06AM 52.7110 2.8420 119° Southeast 473 544 35,000  Climbing FlightAware
02:07AM 52.6688 3.0211 119° Southeast 444 511 33,500  Descending FlightAware UK
02:07AM 52.6670 2.9710 119° Southeast 475 547 35,000  Climbing FlightAware
02:07AM 52.6424 3.0951 119° Southeast 446 513 33,500 -2,520 Descending FlightAware UK
02:08AM 52.6223 3.1508 121° Southeast 448 516 33,500 3,300 Level FlightAware UK
02:08AM 52.6160 3.1150 121° Southeast 479 551 35,000  Climbing FlightAware
02:08AM 52.5693 3.3004 121° Southeast 450 518 33,500  Descending FlightAware UK
02:08AM 52.5720 3.2420 121° Southeast 482 555 35,000  Climbing FlightAware
02:09AM 52.5493 3.3568 121° Southeast 452 520 33,500  Descending FlightAware UK
02:09AM 52.5280 3.3660 121° Southeast 483 556 35,000  Climbing FlightAware
02:09AM 52.5023 3.4883 121° Southeast 456 525 33,500 -2,460 Descending FlightAware UK
02:10AM 52.4818 3.5453 121° Southeast 456 525 33,500 3,420 Level FlightAware UK
02:10AM 52.4790 3.5060 121° Southeast 485 558 35,000  Climbing FlightAware
02:10AM 52.4341 3.6766 121° Southeast 456 525 33,500  Descending FlightAware UK
02:10AM 52.4330 3.6350 121° Southeast 484 557 35,000 1,920 Climbing FlightAware
02:11AM 52.3880 3.7600 120° Southeast 484 557 35,000 -1,500 Level FlightAware
02:11AM 52.3583 3.8815 120° Southeast 454 522 33,500  Descending FlightAware UK
02:12AM 52.3360 3.9010 120° Southeast 483 556 35,000  Climbing FlightAware
02:12AM 52.2962 4.0485 120° Southeast 454 522 33,500  Descending FlightAware UK
02:13AM 52.2900 4.0270 120° Southeast 482 555 35,000  Climbing FlightAware
02:13AM 52.2484 4.1778 120° Southeast 452 520 33,500  Descending FlightAware UK
02:13AM 52.2400 4.1650 120° Southeast 480 552 35,000 1,620 Climbing FlightAware
02:14AM 52.1950 4.2900 120° Southeast 478 550 35,000  Level FlightAware
02:15AM 52.1490 4.4130 121° Southeast 477 549 35,000 -1,200 Level FlightAware
02:15AM 52.0977 4.5792 121° Southeast 448 516 33,500  Descending FlightAware UK
02:15AM 52.0980 4.5530 121° Southeast 474 545 35,000  Climbing FlightAware
02:16AM 52.0714 4.6519 121° Southeast 448 516 33,500  Descending FlightAware UK
02:16AM 52.0540 4.6710 121° Southeast 471 542 35,000  Climbing FlightAware
02:16AM 52.0244 4.7771 121° Southeast 446 513 33,500  Descending FlightAware UK
02:17AM 52.0070 4.7970 121° Southeast 469 540 35,000 1,320 Climbing FlightAware
02:17AM 51.9580 4.9250 122° Southeast 466 536 35,000  Level FlightAware
02:18AM 51.9070 5.0590 122° Southeast 465 535 35,000  Level FlightAware
02:19AM 51.8640 5.1740 121° Southeast 464 534 35,000 -1,620 Level FlightAware
02:19AM 51.8354 5.2692 121° Southeast 440 506 33,500  Descending FlightAware UK
02:20AM 51.8160 5.3010 121° Southeast 462 532 35,000  Climbing FlightAware
02:20AM 51.7660 5.4411 121° Southeast 442 509 33,500  Descending FlightAware UK
02:20AM 51.7670 5.4310 121° Southeast 462 532 35,000  Climbing FlightAware
02:21AM 51.7260 5.5452 121° Southeast 440 506 33,500  Descending FlightAware UK
02:21AM 51.7230 5.5440 121° Southeast 462 532 35,000  Climbing FlightAware
02:21AM 51.6935 5.6336 121° Southeast 444 511 33,500 -2,520 Descending FlightAware UK
02:22AM 51.6735 5.6857 122° Southeast 444 511 33,500 3,300 Level FlightAware UK
02:22AM 51.6750 5.6720 122° Southeast 463 533 35,000  Climbing FlightAware
02:22AM 51.6479 5.7561 122° Southeast 444 511 33,500  Descending FlightAware UK
02:22AM 51.6280 5.7920 122° Southeast 462 532 35,000 1,260 Climbing FlightAware
02:23AM 51.5780 5.9220 122° Southeast 461 531 35,000  Level FlightAware
02:24AM 51.5360 6.0290 122° Southeast 460 529 35,000  Level FlightAware
02:25AM 51.4820 6.1660 122° Southeast 460 529 35,000  Level FlightAware
02:25AM 51.4370 6.2800 122° Southeast 459 528 35,000  Level FlightAware
02:26AM 51.3950 6.3850 123° Southeast 459 528 35,000  Level FlightAware
02:27AM 51.3430 6.5160 122° Southeast 457 526 35,000  Level FlightAware
02:27AM 51.2940 6.6380 123° Southeast 457 526 35,000  Level FlightAware
02:28AM 51.2410 6.7680 123° Southeast 456 525 35,000  Level FlightAware
02:29AM 51.1980 6.8750 123° Southeast 455 524 35,000  Level FlightAware
02:29AM 51.1530 6.9860 123° Southeast 454 522 35,000  Level FlightAware
02:30AM 51.0980 7.1100 125° Southeast 447 514 35,000  Level FlightAware
02:31AM 51.0420 7.2100 132° Southeast 441 507 35,000  Level FlightAware
02:32AM 50.9770 7.3170 134° Southeast 440 506 35,000  Level FlightAware
02:32AM 50.9310 7.3920 134° Southeast 439 505 35,000  Level FlightAware
02:33AM 50.8790 7.4770 134° Southeast 439 505 35,000  Level FlightAware
02:34AM 50.8100 7.5900 134° Southeast 437 503 35,000  Level FlightAware
02:34AM 50.7500 7.6870 134° Southeast 438 504 35,000  Level FlightAware
02:35AM 50.7000 7.7680 134° Southeast 438 504 35,000  Level FlightAware
02:36AM 50.6310 7.8780 135° Southeast 439 505 35,000  Level FlightAware
02:36AM 50.5750 7.9670 135° Southeast 439 505 35,000  Level FlightAware
02:37AM 50.5150 8.0630 134° Southeast 439 505 35,000  Level FlightAware
02:38AM 50.4600 8.1510 134° Southeast 440 506 35,000  Level FlightAware
02:38AM 50.4020 8.2450 134° Southeast 440 506 35,000  Level FlightAware
02:39AM 50.3090 8.3910 135° Southeast 439 505 35,000  Level FlightAware
02:40AM 50.2460 8.4890 135° Southeast 439 505 35,000  Level FlightAware
02:41AM 50.1820 8.5890 135° Southeast 439 505 35,000  Level FlightAware
02:42AM 50.1230 8.6790 136° Southeast 439 505 35,000  Level FlightAware
02:42AM 50.0660 8.7670 135° Southeast 439 505 35,000  Level FlightAware
02:43AM 50.0050 8.8580 136° Southeast 438 504 35,000  Level FlightAware
02:44AM 49.9430 8.9510 136° Southeast 439 505 35,000  Level FlightAware
02:44AM 49.8780 9.0470 136° Southeast 439 505 35,000  Level FlightAware
02:45AM 49.8170 9.1400 135° Southeast 439 505 35,000  Level FlightAware
02:46AM 49.7620 9.2220 136° Southeast 439 505 35,000 -480 Level FlightAware
02:46AM 49.6970 9.3190 136° Southeast 439 505 34,400 -1,020 Descending FlightAware
02:47AM 49.6460 9.3960 136° Southeast 441 507 33,700 -1,140 Descending FlightAware
02:48AM 49.5910 9.4880 133° Southeast 444 511 33,000 -900 Descending FlightAware
02:48AM 49.5490 9.5620 131° Southeast 442 509 32,500 -780 Descending FlightAware
02:49AM 49.4860 9.6730 131° Southeast 437 503 31,900 -1,080 Descending FlightAware
02:50AM 49.4280 9.7730 132° Southeast 435 501 31,000 -1,380 Descending FlightAware
02:51AM 49.3640 9.8820 132° Southeast 432 497 30,000 -1,740 Descending FlightAware
02:52AM 49.2870 10.0130 132° Southeast 420 483 28,100 -2,160 Descending FlightAware
02:52AM 49.2300 10.1120 131° Southeast 426 490 26,400 -1,380 Descending FlightAware
02:53AM 49.1680 10.2150 133° Southeast 449 517 26,000 -300 Descending FlightAware
02:54AM 49.1080 10.3130 133° Southeast 451 519 26,000 -1,020 Level FlightAware
02:55AM 49.0270 10.4390 134° Southeast 439 505 24,300 -2,160 Descending FlightAware
02:55AM 48.9750 10.5220 134° Southeast 432 497 22,600 -2,580 Descending FlightAware
02:56AM 48.9140 10.6170 134° Southeast 420 483 20,900 -2,340 Descending FlightAware
02:57AM 48.8610 10.7020 133° Southeast 414 476 19,300 -2,340 Descending FlightAware
02:58AM 48.7950 10.8030 135° Southeast 400 460 17,400 -2,340 Descending FlightAware
02:58AM 48.7450 10.8930 130° Southeast 397 457 15,800 -2,340 Descending FlightAware
02:59AM 48.7020 10.9860 125° Southeast 392 451 14,300 -1,800 Descending FlightAware
03:00AM 48.6480 11.0950 127° Southeast 12,500 -1,560 Descending FlightAware
03:00AM 48.6130 11.1650 127° Southeast 375 432 12,200 -1,080 Descending FlightAware
03:01AM 48.5530 11.2730 130° Southeast 365 420 11,000 -840 Descending FlightAware
03:02AM 48.5110 11.3560 127° Southeast 370 426 11,000  Level FlightAware
03:02AM 48.4730 11.4290 128° Southeast 371 427 11,000  Level FlightAware
03:03AM 48.4570 11.4710 120° Southeast 372 428 11,000  Level FlightAware
03:03AM 48.4540 11.5720 93° East 372 428 11,000  Level FlightAware
03:04AM 48.4620 11.6770 83° East 349 402 11,000 -660 Level FlightAware
03:05AM 48.4720 11.7800 82° East 310 357 10,100 -1,560 Descending FlightAware
03:05AM 48.4760 11.8440 85° East 305 351 9,100 -2,100 Descending FlightAware
03:06AM 48.4810 11.9060 83° East 300 345 8,000 -2,100 Descending FlightAware
03:07AM 48.4870 11.9880 84° East 286 329 6,700 -1,980 Descending FlightAware
03:07AM 48.4910 12.0450 84° East 279 321 5,700 -1,380 Descending FlightAware
03:08AM 48.4720 12.1110 113° Southeast 247 284 5,100 -660 Descending FlightAware
03:08AM 48.4580 12.1200 157° South 246 283 5,100 -300 Level FlightAware
03:08AM 48.4300 12.1100 193° South 242 278 4,900 -120 Descending FlightAware
03:09AM 48.4080 12.0710 230° Southwest 231 266 5,000  Climbing FlightAware
03:09AM 48.4050 12.0480 259° West 234 269 4,900 -600 Descending FlightAware
03:09AM 48.4040 12.0240 266° West 235 270 4,700 -900 Descending FlightAware
03:10AM 48.4020 11.9830 266° West 224 258 4,300 -1,080 Descending FlightAware
03:11AM 48.3950 11.9160 261° West 205 236 3,500 -1,140 Descending FlightAware
03:11AM 48.3940 11.9020 264° West 201 231 3,300 -1,200 Descending FlightAware
03:11AM 48.3900 11.8490 264° West 169 194 2,500 -1,080 Descending FlightAware
03:12AM 48.3880 11.8180 264° West 149 171 2,100 -840 Descending FlightAware
03:12AM 48.3860 11.8030 259° West 145 167 1,900 -780 Descending FlightAware
03:13AM 48.3830 11.7630 264° West 147 169 1,400 -780 Descending FlightAware